createdAt,value
2019-02-07T00:01:54.783Z,49.90
2019-02-07T00:04:38.844Z,49.90
2019-02-07T00:07:41.541Z,50.00
2019-02-07T00:10:25.497Z,49.90
2019-02-07T00:13:16.070Z,49.90
2019-02-07T00:16:00.466Z,49.90
2019-02-07T00:18:54.211Z,50.00
2019-02-07T00:21:40.353Z,50.00
2019-02-07T00:24:43.321Z,50.00
2019-02-07T00:27:33.004Z,50.00
2019-02-07T00:30:20.979Z,50.00
2019-02-07T00:33:06.124Z,50.10
2019-02-07T00:35:59.874Z,50.10
2019-02-07T00:38:41.601Z,50.10
2019-02-07T00:41:27.608Z,50.20
2019-02-07T00:44:30.619Z,50.30
2019-02-07T00:47:07.719Z,50.30
2019-02-07T00:49:53.884Z,50.30
2019-02-07T00:52:30.727Z,50.30
2019-02-07T00:55:17.208Z,50.40
2019-02-07T00:58:07.232Z,50.40
2019-02-07T01:00:49.117Z,50.40
2019-02-07T01:06:53.432Z,50.40
2019-02-07T01:09:44.595Z,50.40
2019-02-07T01:12:48.915Z,50.40
2019-02-07T01:15:57.416Z,50.40
2019-02-07T01:18:39.319Z,50.50
2019-02-07T01:21:17.629Z,50.50
2019-02-07T01:24:12.322Z,50.60
2019-02-07T01:26:56.074Z,50.50
2019-02-07T01:29:53.479Z,50.60
2019-02-07T01:33:02.246Z,50.50
2019-02-07T01:36:03.872Z,50.50
2019-02-07T01:38:45.021Z,50.60
2019-02-07T01:41:27.089Z,50.50
2019-02-07T01:44:12.824Z,50.40
2019-02-07T01:47:11.888Z,50.50
2019-02-07T01:50:23.902Z,50.50
2019-02-07T01:53:02.290Z,50.40
2019-02-07T01:55:50.056Z,50.40
2019-02-07T01:58:40.659Z,50.30
2019-02-07T02:01:22.073Z,50.20
2019-02-07T02:04:00.122Z,50.20
2019-02-07T02:06:37.219Z,50.10
2019-02-07T02:09:15.624Z,50.10
2019-02-07T02:11:52.222Z,50.10
2019-02-07T02:14:27.695Z,50.20
2019-02-07T02:17:04.725Z,50.20
2019-02-07T02:19:41.569Z,50.30
2019-02-07T02:22:21.692Z,50.40
2019-02-07T02:25:18.156Z,50.40
2019-02-07T02:27:58.783Z,50.40
2019-02-07T02:30:35.529Z,50.40
2019-02-07T02:33:13.509Z,50.50
2019-02-07T02:35:50.386Z,50.50
2019-02-07T02:38:27.100Z,50.50
2019-02-07T02:41:06.396Z,50.50
2019-02-07T02:43:46.352Z,50.60
2019-02-07T02:46:27.057Z,50.70
2019-02-07T02:49:04.199Z,50.80
2019-02-07T02:51:41.411Z,51.00
2019-02-07T02:54:33.571Z,50.80
2019-02-07T02:57:08.996Z,50.80
2019-02-07T02:59:46.982Z,50.80
2019-02-07T03:02:40.301Z,50.80
2019-02-07T03:05:32.473Z,50.80
2019-02-07T03:08:25.639Z,50.90
2019-02-07T03:11:37.894Z,50.90
2019-02-07T03:14:45.699Z,50.80
2019-02-07T03:17:45.169Z,50.90
2019-02-07T03:20:51.141Z,50.40
2019-02-07T03:23:56.409Z,50.70
2019-02-07T03:27:06.491Z,50.60
2019-02-07T03:30:01.413Z,50.60
2019-02-07T03:33:04.185Z,50.60
2019-02-07T03:36:17.649Z,50.60
2019-02-07T03:39:24.327Z,50.70
2019-02-07T03:42:25.897Z,51.30
2019-02-07T03:45:17.977Z,50.90
2019-02-07T03:48:12.182Z,50.80
2019-02-07T03:51:06.738Z,50.90
2019-02-07T03:54:07.383Z,50.90
2019-02-07T03:57:21.193Z,50.90
2019-02-07T04:00:09.503Z,50.90
2019-02-07T04:03:16.450Z,50.90
2019-02-07T04:06:09.553Z,50.90
2019-02-07T04:09:01.664Z,51.40
2019-02-07T04:12:01.163Z,50.90
2019-02-07T04:15:14.199Z,51.00
2019-02-07T04:18:11.688Z,51.00
2019-02-07T04:21:12.597Z,51.00
2019-02-07T04:24:17.753Z,51.00
2019-02-07T04:27:24.294Z,50.90
2019-02-07T04:30:17.335Z,50.80
2019-02-07T04:33:18.401Z,50.90
2019-02-07T04:36:29.262Z,50.80
2019-02-07T04:39:33.610Z,50.80
2019-02-07T04:42:46.014Z,50.70
2019-02-07T04:46:05.050Z,50.80
2019-02-07T04:48:58.067Z,50.80
2019-02-07T04:51:52.025Z,50.80
2019-02-07T04:54:58.298Z,50.80
2019-02-07T04:57:43.689Z,50.90
2019-02-07T05:00:36.983Z,50.90
2019-02-07T05:03:34.302Z,51.00
2019-02-07T05:06:23.135Z,51.00
2019-02-07T05:09:30.533Z,51.00
2019-02-07T05:12:15.462Z,51.00
2019-02-07T05:15:12.110Z,50.90
2019-02-07T05:18:29.416Z,51.00
2019-02-07T05:25:20.524Z,50.80
2019-02-07T05:28:31.383Z,50.80
2019-02-07T05:31:30.185Z,50.80
2019-02-07T05:34:32.408Z,50.80
2019-02-07T05:37:31.303Z,50.80
2019-02-07T05:40:39.512Z,50.80
2019-02-07T05:43:48.019Z,50.80
2019-02-07T05:46:37.101Z,50.80
2019-02-07T05:49:40.324Z,50.70
2019-02-07T05:52:36.317Z,50.80
2019-02-07T05:55:33.083Z,51.00
2019-02-07T05:58:44.643Z,50.60
2019-02-07T06:01:40.157Z,50.60
2019-02-07T06:04:34.462Z,50.50
2019-02-07T06:07:27.672Z,50.40
2019-02-07T06:10:25.020Z,50.50
2019-02-07T06:13:18.196Z,50.50
2019-02-07T06:16:18.492Z,50.50
2019-02-07T06:19:18.850Z,50.60
2019-02-07T06:22:13.954Z,50.60
2019-02-07T06:25:07.203Z,50.50
2019-02-07T06:28:13.522Z,50.60
2019-02-07T06:31:28.957Z,50.60
2019-02-07T06:34:31.982Z,50.60
2019-02-07T06:37:38.105Z,50.50
2019-02-07T06:40:38.459Z,50.60
2019-02-07T06:43:32.531Z,50.70
2019-02-07T06:46:30.255Z,50.70
2019-02-07T06:49:36.398Z,50.80
2019-02-07T06:52:46.249Z,50.80
2019-02-07T06:55:55.727Z,50.80
2019-02-07T06:58:51.675Z,50.80
2019-02-07T07:01:43.694Z,50.80
2019-02-07T07:07:59.086Z,51.00
2019-02-07T07:11:08.430Z,51.00
2019-02-07T07:13:55.208Z,51.00
2019-02-07T07:16:49.855Z,51.00
2019-02-07T07:20:11.954Z,51.10
2019-02-07T07:23:17.685Z,51.10
2019-02-07T07:26:19.715Z,51.10
2019-02-07T07:29:31.576Z,51.30
2019-02-07T07:32:29.699Z,51.30
2019-02-07T07:36:12.554Z,51.30
2019-02-07T07:39:52.881Z,51.20
2019-02-07T07:53:55.563Z,51.30
2019-02-07T08:35:43.086Z,51.20
2019-02-07T08:36:39.733Z,51.30
2019-02-07T08:39:37.690Z,51.30
2019-02-07T10:44:07.484Z,51.10
2019-02-07T12:14:58.521Z,49.00
2019-02-07T12:18:35.375Z,49.20
2019-02-07T12:22:45.864Z,49.30
2019-02-07T12:26:57.673Z,49.30
2019-02-07T12:29:51.666Z,49.30
2019-02-07T12:32:57.353Z,49.00
2019-02-07T12:36:24.281Z,49.10
2019-02-07T12:39:42.634Z,49.00
2019-02-07T12:43:27.239Z,49.00
2019-02-07T12:46:50.836Z,49.00
2019-02-07T12:49:54.690Z,49.00
2019-02-07T12:53:10.566Z,48.90
2019-02-07T12:59:32.197Z,48.90
2019-02-07T13:02:36.988Z,48.80
2019-02-07T13:05:47.605Z,48.60
2019-02-07T13:08:42.515Z,48.60
2019-02-07T13:11:37.187Z,48.50
2019-02-07T13:18:28.195Z,48.40
2019-02-07T13:24:54.781Z,48.30
2019-02-07T13:27:55.843Z,48.30
2019-02-07T13:30:55.427Z,48.30
2019-02-07T13:33:59.016Z,48.30
2019-02-07T13:37:06.760Z,48.30
2019-02-07T13:40:16.342Z,48.40
2019-02-07T13:43:34.529Z,48.40
2019-02-07T13:47:00.142Z,48.40
2019-02-07T13:54:33.271Z,48.40
2019-02-07T14:06:50.848Z,48.40
2019-02-07T14:09:19.305Z,49.00
2019-02-07T14:12:44.410Z,48.40
2019-02-07T14:20:24.869Z,48.40
2019-02-07T14:23:35.740Z,48.90
2019-02-07T14:27:06.725Z,48.40
2019-02-07T14:30:20.026Z,48.40
2019-02-07T14:46:16.239Z,48.80
2019-02-07T14:50:14.944Z,48.90
2019-02-07T14:53:04.144Z,48.80
2019-02-07T14:59:22.808Z,48.70
2019-02-07T15:02:45.218Z,48.60
2019-02-07T15:09:00.517Z,48.60
2019-02-07T15:11:36.105Z,48.40
2019-02-07T15:14:33.581Z,48.40
2019-02-07T15:17:09.019Z,48.40
2019-02-07T15:19:47.124Z,48.30
2019-02-07T15:22:22.932Z,48.30
2019-02-07T15:24:59.628Z,48.30
2019-02-07T15:27:34.938Z,48.10
2019-02-07T15:30:13.510Z,48.10
2019-02-07T15:32:48.840Z,48.20
2019-02-07T15:35:27.865Z,48.30
2019-02-07T15:38:07.346Z,48.30
2019-02-07T15:40:43.041Z,48.90
2019-02-07T15:43:18.680Z,48.30
2019-02-07T15:45:54.581Z,48.30
2019-02-07T15:48:30.036Z,48.30
2019-02-07T15:51:11.965Z,48.30
2019-02-07T15:53:53.304Z,47.80
2019-02-07T15:56:28.965Z,48.30
2019-02-07T15:59:30.024Z,48.40
2019-02-07T16:02:24.865Z,48.40
2019-02-07T16:05:00.362Z,48.40
2019-02-07T16:07:35.731Z,48.40
2019-02-07T16:10:13.665Z,48.40
2019-02-07T16:12:48.941Z,48.40
2019-02-07T16:37:17.133Z,48.70
2019-02-07T16:45:06.312Z,48.90
2019-02-07T16:55:35.245Z,48.90
2019-02-07T17:29:32.933Z,49.40
2019-02-07T17:52:39.780Z,49.50
2019-02-07T17:56:10.069Z,49.70
2019-02-07T18:11:34.905Z,49.60
2019-02-07T18:14:23.895Z,49.60
2019-02-07T18:17:15.086Z,49.50
2019-02-07T18:19:52.940Z,49.40
2019-02-07T18:22:33.416Z,49.40
2019-02-07T18:25:10.983Z,49.60
2019-02-07T18:27:49.846Z,49.60
2019-02-07T18:30:34.255Z,49.60
2019-02-07T18:36:38.363Z,49.60
2019-02-07T18:39:24.725Z,49.60
2019-02-07T18:42:16.213Z,49.50
2019-02-07T18:45:16.795Z,49.50
2019-02-07T18:48:11.942Z,49.50
2019-02-07T18:51:05.366Z,49.50
2019-02-07T18:53:56.007Z,50.10
2019-02-07T18:56:37.692Z,49.60
2019-02-07T18:59:17.317Z,49.60
2019-02-07T19:06:16.944Z,49.60
2019-02-07T19:09:32.379Z,49.50
2019-02-07T19:17:11.064Z,49.50
2019-02-07T19:19:47.402Z,49.50
2019-02-07T19:22:27.627Z,49.20
2019-02-07T19:25:24.719Z,49.20
2019-02-07T19:28:20.667Z,49.20
2019-02-07T19:31:31.370Z,49.30
2019-02-07T19:34:17.043Z,49.30
2019-02-07T19:37:44.714Z,49.20
2019-02-07T19:52:08.306Z,49.40
2019-02-07T19:55:01.729Z,49.50
2019-02-07T19:57:53.250Z,49.50
2019-02-07T20:00:54.999Z,49.50
2019-02-07T20:04:32.972Z,49.60
2019-02-07T20:07:32.834Z,49.60
2019-02-07T20:10:31.007Z,49.70
2019-02-07T20:13:39.169Z,49.70
2019-02-07T20:16:38.123Z,50.10
2019-02-07T20:19:43.998Z,49.80
2019-02-07T20:22:53.456Z,49.80
2019-02-07T20:26:22.725Z,49.80
2019-02-07T20:29:34.311Z,49.90
2019-02-07T20:32:26.225Z,50.00
2019-02-07T20:35:20.118Z,50.10
2019-02-07T20:38:29.885Z,50.00
2019-02-07T20:49:27.563Z,50.10
2019-02-07T21:00:11.302Z,50.20
2019-02-07T21:04:10.463Z,50.10
2019-02-07T21:11:51.374Z,50.20
2019-02-07T21:15:18.527Z,50.30
2019-02-07T21:30:18.929Z,50.40
2019-02-07T21:37:12.167Z,50.50
2019-02-07T21:44:27.447Z,50.50
2019-02-07T21:55:09.887Z,50.70
2019-02-07T21:59:01.272Z,50.70
2019-02-07T22:05:19.223Z,50.70
2019-02-07T22:09:05.235Z,50.80
2019-02-07T22:27:47.081Z,50.90
2019-02-07T22:31:30.317Z,50.90
2019-02-07T23:47:41.251Z,51.50
2019-02-07T23:54:20.982Z,51.50
2019-02-07T23:58:15.143Z,51.50
